Time;durP1;ratioP1;P1;durP2;ratioP2;P2;SDS_P1;SDS_P2;PMS_P1;PMS_P2;Temp;Humidity;BMP_temperature;BMP_pressure;BME280_temperature;BME280_humidity;BME280_pressure;Samples;Min_cycle;Max_cycle;Signal;HPM_P1;HPM_P2
2021/11/16 00:02:19;;;;;;;40.63;23.77;;;;;;;7.39;91.88;95947.97;5012294;28;20222;-82
2021/11/16 00:04:47;;;;;;;35.83;22.57;;;;;;;7.35;91.83;95942.31;5012323;28;20203;-82
2021/11/16 00:07:13;;;;;;;35.40;22.57;;;;;;;7.25;92.23;95942.44;5011829;28;20278;-82
2021/11/16 00:09:40;;;;;;;34.73;21.13;;;;;;;7.27;91.84;95943.09;5012223;28;20702;-81
2021/11/16 00:12:07;;;;;;;35.00;21.03;;;;;;;7.30;91.69;95943.75;5012119;28;20218;-83
2021/11/16 00:14:34;;;;;;;37.73;21.03;;;;;;;7.35;91.55;95944.91;5012124;28;20605;-80
2021/11/16 00:17:00;;;;;;;31.10;20.50;;;;;;;7.41;91.27;95941.75;5012076;28;20281;-84
2021/11/16 00:19:28;;;;;;;32.27;19.77;;;;;;;7.41;90.72;95939.19;5012038;28;20659;-82
2021/11/16 00:21:57;;;;;;;31.07;20.23;;;;;;;7.42;90.54;95934.88;5012045;28;20225;-82
2021/11/16 00:24:35;;;;;;;32.53;21.23;;;;;;;7.39;90.26;95945.41;5011730;28;20242;-81
2021/11/16 00:27:02;;;;;;;33.10;21.20;;;;;;;7.37;90.88;95937.06;5012403;28;20195;-83
2021/11/16 00:29:28;;;;;;;35.23;22.10;;;;;;;7.37;90.83;95944.75;5011943;28;20756;-83
2021/11/16 00:31:54;;;;;;;35.60;22.03;;;;;;;7.38;91.04;95938.66;5011602;28;20589;-82
2021/11/16 00:34:21;;;;;;;34.83;21.53;;;;;;;7.37;91.00;95943.00;5012424;28;20599;-82
2021/11/16 00:36:49;;;;;;;34.57;22.03;;;;;;;7.39;90.85;95938.53;5013114;28;20737;-82
2021/11/16 00:39:15;;;;;;;31.57;19.60;;;;;;;7.42;91.05;95942.56;5015877;28;20222;-82
2021/11/16 00:41:42;;;;;;;30.33;20.60;;;;;;;7.43;90.57;95951.84;5015784;28;20233;-82
2021/11/16 00:44:09;;;;;;;27.77;19.20;;;;;;;7.40;90.71;95947.03;5015570;28;20210;-82
2021/11/16 00:46:35;;;;;;;32.10;21.23;;;;;;;7.39;90.47;95937.72;5016147;28;20195;-83
2021/11/16 00:49:02;;;;;;;36.37;22.30;;;;;;;7.39;90.62;95938.53;5016880;28;20202;-81
2021/11/16 00:51:29;;;;;;;32.23;20.87;;;;;;;7.42;90.72;95940.00;5015564;28;20579;-80
2021/11/16 00:53:57;;;;;;;34.50;21.07;;;;;;;7.44;91.01;95932.97;5016089;28;20547;-80
2021/11/16 00:56:24;;;;;;;35.80;22.20;;;;;;;7.49;90.69;95933.34;5016299;28;20199;-80
2021/11/16 00:58:50;;;;;;;33.03;21.93;;;;;;;7.49;90.64;95930.78;5015877;28;20222;-83
2021/11/16 01:01:17;;;;;;;38.30;23.07;;;;;;;7.47;90.18;95932.69;5015604;28;20658;-82
2021/11/16 01:03:43;;;;;;;39.40;23.47;;;;;;;7.49;90.73;95946.16;5015910;28;20777;-83
2021/11/16 01:06:09;;;;;;;43.93;25.20;;;;;;;7.43;91.49;95951.84;5015503;28;20686;-80
2021/11/16 01:08:36;;;;;;;43.93;24.23;;;;;;;7.34;91.58;95945.84;5015834;28;20689;-83
2021/11/16 01:11:04;;;;;;;42.93;25.27;;;;;;;7.16;93.76;95943.28;5015535;28;20201;-83
2021/11/16 01:13:31;;;;;;;50.47;26.67;;;;;;;6.99;95.23;95938.97;5015479;28;20222;-83
2021/11/16 01:15:57;;;;;;;45.57;26.57;;;;;;;7.08;94.88;95934.75;5015579;28;20268;-82
2021/11/16 01:18:27;;;;;;;41.17;25.63;;;;;;;7.11;95.19;95931.91;5015185;28;20726;-82
2021/11/16 01:20:54;;;;;;;43.83;25.87;;;;;;;7.20;94.39;95941.25;5015427;28;20202;-81
2021/11/16 01:23:22;;;;;;;43.03;25.07;;;;;;;7.31;93.42;95941.03;5015535;28;20870;-83
2021/11/16 01:25:49;;;;;;;43.50;25.87;;;;;;;7.39;92.80;95941.09;5014533;28;20207;-82
2021/11/16 01:28:23;;;;;;;39.83;24.53;;;;;;;7.44;92.58;95946.59;5014664;28;20195;-80
2021/11/16 01:30:52;;;;;;;41.23;25.17;;;;;;;7.45;92.21;95947.38;5015100;28;20616;-82
2021/11/16 01:33:21;;;;;;;47.47;25.63;;;;;;;7.47;91.82;95940.38;5015080;28;20227;-83
2021/11/16 01:35:49;;;;;;;42.10;24.07;;;;;;;7.50;91.60;95946.00;5015102;28;20195;-83
2021/11/16 01:38:16;;;;;;;40.67;24.80;;;;;;;7.48;91.95;95942.78;5014952;28;20234;-82
2021/11/16 01:40:44;;;;;;;38.27;23.60;;;;;;;7.50;91.98;95940.06;5015186;28;20199;-81
2021/11/16 01:43:11;;;;;;;43.53;24.53;;;;;;;7.49;91.86;95941.03;5016603;28;20896;-81
2021/11/16 01:45:41;;;;;;;38.97;23.80;;;;;;;7.47;91.62;95938.59;5016276;28;20706;-83
2021/11/16 01:48:09;;;;;;;34.57;21.93;;;;;;;7.42;92.12;95930.56;5014899;28;20576;-84
2021/11/16 01:50:36;;;;;;;36.33;21.17;;;;;;;7.37;91.71;95931.94;5015928;28;20235;-84
2021/11/16 01:53:03;;;;;;;36.63;21.47;;;;;;;7.35;92.08;95933.84;5015495;28;20714;-82
2021/11/16 01:55:30;;;;;;;35.70;21.60;;;;;;;7.22;93.60;95926.53;5015768;28;20203;-82
2021/11/16 01:57:57;;;;;;;44.23;22.97;;;;;;;7.22;93.17;95932.47;5015803;28;20221;-83
2021/11/16 02:00:27;;;;;;;37.13;22.03;;;;;;;7.22;94.06;95947.84;5007791;28;20195;-82
2021/11/16 02:02:55;;;;;;;35.47;20.63;;;;;;;7.18;93.80;95935.47;5015979;28;20246;-82
2021/11/16 02:05:34;;;;;;;37.47;20.47;;;;;;;7.13;94.46;95945.34;5016135;28;20203;-80
2021/11/16 02:08:01;;;;;;;38.13;21.20;;;;;;;7.14;94.57;95945.19;5015966;28;20233;-82
2021/11/16 02:10:27;;;;;;;35.80;21.87;;;;;;;7.17;94.15;95937.22;5016147;28;20198;-80
2021/11/16 02:12:54;;;;;;;35.30;20.60;;;;;;;7.19;93.75;95924.28;5015955;28;20222;-82
2021/11/16 02:15:20;;;;;;;35.40;21.00;;;;;;;7.23;93.59;95936.63;5015850;28;20191;-83
2021/11/16 02:17:48;;;;;;;36.23;20.50;;;;;;;7.27;93.13;95942.28;5015466;28;20222;-81
2021/11/16 02:20:17;;;;;;;34.53;20.63;;;;;;;7.25;93.48;95933.94;5015759;28;20256;-82
2021/11/16 02:22:45;;;;;;;37.57;20.43;;;;;;;7.21;93.39;95935.97;5015871;28;20602;-83
2021/11/16 02:25:12;;;;;;;37.17;21.03;;;;;;;7.20;93.33;95936.13;5015059;28;20195;-84
2021/11/16 02:27:38;;;;;;;31.03;20.43;;;;;;;7.18;94.19;95935.47;5015049;28;20678;-83
2021/11/16 02:30:06;;;;;;;35.30;20.67;;;;;;;7.20;94.10;95936.13;5015507;28;20249;-83
2021/11/16 02:32:33;;;;;;;39.57;22.07;;;;;;;7.20;93.90;95923.31;5014867;28;20237;-81
2021/11/16 02:35:00;;;;;;;33.83;22.40;;;;;;;7.23;93.63;95928.97;5014833;28;20654;-83
2021/11/16 02:37:31;;;;;;;37.90;22.63;;;;;;;7.22;93.77;95934.22;5015146;28;20244;-82
2021/11/16 02:39:59;;;;;;;36.07;21.53;;;;;;;7.15;94.21;95936.56;5014941;28;20631;-84
2021/11/16 02:42:27;;;;;;;35.50;20.80;;;;;;;7.12;94.01;95943.75;5015332;28;20223;-81
2021/11/16 02:44:54;;;;;;;34.50;21.10;;;;;;;7.17;94.06;95923.59;5014423;28;20195;-82
2021/11/16 02:47:20;;;;;;;33.47;19.63;;;;;;;7.21;93.32;95924.94;5014879;28;20206;-83
2021/11/16 02:49:47;;;;;;;38.77;21.57;;;;;;;7.19;93.64;95930.19;5014505;28;20279;-82
2021/11/16 02:52:14;;;;;;;37.93;21.47;;;;;;;7.21;93.70;95945.41;5014584;28;20230;-81
2021/11/16 02:54:42;;;;;;;37.13;22.20;;;;;;;7.22;93.68;95942.72;5014972;28;20207;-85
2021/11/16 02:57:12;;;;;;;36.50;21.77;;;;;;;7.21;94.27;95937.75;5014654;28;20281;-84
2021/11/16 02:59:39;;;;;;;32.27;19.00;;;;;;;7.06;94.63;95937.44;5013214;28;20252;-84
2021/11/16 03:02:06;;;;;;;30.40;18.30;;;;;;;6.99;94.75;95938.16;5014376;28;20748;-83
2021/11/16 03:04:33;;;;;;;27.90;17.63;;;;;;;6.90;95.73;95948.34;5014432;28;20199;-82
2021/11/16 03:07:00;;;;;;;27.60;16.70;;;;;;;6.93;95.37;95935.22;5013323;28;20265;-84
2021/11/16 03:09:29;;;;;;;27.13;16.67;;;;;;;6.98;94.82;95932.25;5014464;28;20218;-84
2021/11/16 03:11:56;;;;;;;23.37;15.73;;;;;;;7.03;94.49;95945.41;5014347;28;20226;-84
2021/11/16 03:14:24;;;;;;;25.73;15.53;;;;;;;7.00;94.55;95939.78;5014157;28;20209;-84
2021/11/16 03:16:51;;;;;;;24.57;15.57;;;;;;;6.99;94.14;95938.16;5013677;28;20198;-83
2021/11/16 03:19:17;;;;;;;22.37;15.20;;;;;;;6.94;94.35;95934.28;5014182;28;20597;-84
2021/11/16 03:21:53;;;;;;;24.90;15.80;;;;;;;6.93;94.61;95942.91;5013509;28;20211;-84
2021/11/16 03:24:20;;;;;;;22.97;15.07;;;;;;;6.93;94.43;95944.66;5013592;28;20206;-84
2021/11/16 03:26:46;;;;;;;24.00;14.50;;;;;;;6.96;94.63;95941.81;5013482;28;20199;-84
2021/11/16 03:29:14;;;;;;;20.33;14.80;;;;;;;6.99;94.20;95940.72;5013250;28;20202;-83
2021/11/16 03:31:49;;;;;;;23.33;15.40;;;;;;;7.01;94.25;95942.19;5013198;28;20206;-84
2021/11/16 03:34:15;;;;;;;23.27;14.73;;;;;;;6.97;94.57;95934.94;5013883;28;20281;-84
2021/11/16 03:36:42;;;;;;;23.37;15.00;;;;;;;6.98;94.64;95941.69;5013130;28;20202;-84
2021/11/16 03:39:08;;;;;;;25.00;15.00;;;;;;;7.00;94.29;95935.47;5013400;28;20219;-83
2021/11/16 03:41:35;;;;;;;24.67;14.63;;;;;;;6.96;94.66;95944.38;5013533;28;20633;-84
2021/11/16 03:44:01;;;;;;;26.07;15.80;;;;;;;6.84;95.00;95948.91;5013540;28;20202;-81
2021/11/16 03:46:28;;;;;;;22.87;14.20;;;;;;;6.84;95.42;95948.91;5013248;28;20705;-82
2021/11/16 03:48:56;;;;;;;22.90;15.03;;;;;;;6.87;95.48;95948.63;5013748;28;20195;-82
2021/11/16 03:51:22;;;;;;;23.77;15.50;;;;;;;6.94;94.97;95938.59;5013249;28;20210;-80
2021/11/16 03:53:49;;;;;;;25.57;15.33;;;;;;;6.96;94.49;95938.44;5012542;28;20223;-81
2021/11/16 03:56:17;;;;;;;25.00;15.57;;;;;;;6.99;94.22;95956.09;5012941;28;20218;-81
2021/11/16 03:58:46;;;;;;;25.33;15.30;;;;;;;6.92;94.90;95961.00;5012281;28;20219;-80
2021/11/16 04:01:13;;;;;;;23.43;15.37;;;;;;;6.93;95.11;95960.03;5012774;28;20289;-83
2021/11/16 04:03:41;;;;;;;24.50;15.90;;;;;;;6.84;95.27;95948.09;5011880;28;20230;-82
2021/11/16 04:06:10;;;;;;;24.23;15.20;;;;;;;6.87;95.81;95947.81;5012094;28;20210;-82
2021/11/16 04:08:37;;;;;;;24.33;15.50;;;;;;;6.88;95.18;95950.25;5012594;28;20294;-82
2021/11/16 04:11:05;;;;;;;23.23;15.27;;;;;;;6.87;95.09;95946.06;5012159;28;20202;-81
2021/11/16 04:13:32;;;;;;;25.97;16.03;;;;;;;6.87;95.57;95947.81;5012723;28;20226;-83
2021/11/16 04:15:59;;;;;;;25.40;15.67;;;;;;;6.94;95.02;95936.84;5012573;28;20198;-84
2021/11/16 04:18:26;;;;;;;22.57;14.37;;;;;;;6.97;94.71;95943.44;5011880;28;20230;-81
2021/11/16 04:20:54;;;;;;;25.67;15.77;;;;;;;6.97;95.13;95943.44;5012253;28;20199;-83
2021/11/16 04:23:23;;;;;;;24.37;15.43;;;;;;;6.98;95.11;95944.22;5012244;28;20218;-83
2021/11/16 04:25:51;;;;;;;23.73;15.70;;;;;;;6.99;94.97;95956.09;5012812;28;20216;-79
2021/11/16 04:28:18;;;;;;;26.53;15.43;;;;;;;6.96;95.11;95949.50;5011413;28;20207;-82
2021/11/16 04:30:47;;;;;;;27.53;16.20;;;;;;;7.03;94.61;95944.63;5012685;28;20206;-83
2021/11/16 04:33:14;;;;;;;24.53;15.23;;;;;;;6.98;94.20;95952.72;5011546;28;20226;-81
2021/11/16 04:35:42;;;;;;;24.43;16.17;;;;;;;7.03;94.45;95962.53;5012523;28;20213;-83
2021/11/16 04:38:11;;;;;;;23.63;15.13;;;;;;;6.97;94.43;95961.34;5012112;28;20198;-83
2021/11/16 04:40:43;;;;;;;25.60;15.80;;;;;;;6.90;94.67;95960.34;5012343;28;20210;-81
2021/11/16 04:43:15;;;;;;;23.80;15.20;;;;;;;6.77;95.67;95959.84;5012354;28;20225;-83
2021/11/16 04:45:44;;;;;;;24.60;14.93;;;;;;;6.73;96.55;95964.47;5012306;28;20210;-82
2021/11/16 04:48:22;;;;;;;24.47;15.47;;;;;;;6.79;96.46;95961.31;5011658;28;20199;-82
2021/11/16 04:51:00;;;;;;;19.73;14.43;;;;;;;6.79;95.80;95961.31;5012107;28;20202;-82
2021/11/16 04:53:53;;;;;;;23.20;14.30;;;;;;;6.82;96.55;95952.56;5011659;28;20325;-80
2021/11/16 04:59:35;;;;;;;24.53;15.17;;;;;;;6.93;94.94;95954.91;5005161;28;20312;-82
2021/11/16 05:04:46;;;;;;;22.23;14.20;;;;;;;6.97;94.58;95951.09;5011909;28;20398;-80
2021/11/16 05:07:16;;;;;;;21.03;14.57;;;;;;;6.98;94.88;95945.03;5012535;28;20199;-83
2021/11/16 05:09:46;;;;;;;22.77;14.53;;;;;;;6.86;95.83;95951.31;5012374;28;20207;-81
2021/11/16 05:12:14;;;;;;;23.57;14.27;;;;;;;6.79;96.29;95956.22;5013158;28;20810;-82
2021/11/16 05:14:40;;;;;;;24.33;15.27;;;;;;;6.84;95.52;95953.22;5011923;28;20206;-82
2021/11/16 05:17:07;;;;;;;21.73;14.63;;;;;;;6.89;95.35;95956.97;5011216;28;20209;-81
2021/11/16 05:19:33;;;;;;;20.37;14.30;;;;;;;6.92;94.32;95953.31;5011962;28;20571;-80
2021/11/16 05:22:00;;;;;;;23.97;13.80;;;;;;;6.96;94.47;95957.19;5011251;28;20231;-81
2021/11/16 05:24:27;;;;;;;23.40;13.77;;;;;;;6.82;94.00;95957.69;5015620;28;20209;-81
2021/11/16 05:26:54;;;;;;;20.50;13.77;;;;;;;6.71;94.81;95961.25;5015151;28;20226;-83
2021/11/16 05:29:21;;;;;;;23.57;14.03;;;;;;;6.74;95.04;95955.81;5014857;28;20626;-82
2021/11/16 05:31:48;;;;;;;19.83;14.37;;;;;;;6.78;95.09;95961.47;5015376;28;20276;-79
2021/11/16 05:34:15;;;;;;;22.13;13.23;;;;;;;6.74;95.42;95968.63;5015020;28;20202;-80
2021/11/16 05:36:42;;;;;;;22.80;13.60;;;;;;;6.80;94.91;95973.19;5015272;28;20203;-81
2021/11/16 05:39:10;;;;;;;21.53;13.00;;;;;;;6.76;94.94;95971.84;5014047;28;20702;-78
2021/11/16 05:41:37;;;;;;;20.03;13.30;;;;;;;6.82;94.50;95973.03;5014662;28;20223;-81
2021/11/16 05:44:04;;;;;;;19.93;13.30;;;;;;;6.83;93.92;95974.66;5014279;28;20195;-81
2021/11/16 05:46:32;;;;;;;20.50;13.43;;;;;;;6.82;93.87;95963.59;5009850;28;20600;-78
2021/11/16 05:48:58;;;;;;;17.77;13.07;;;;;;;6.85;94.12;95963.31;5006081;28;20202;-78
2021/11/16 05:51:27;;;;;;;22.60;13.17;;;;;;;6.90;93.38;95973.13;5007073;28;20207;-79
2021/11/16 05:53:57;;;;;;;17.27;12.20;;;;;;;6.88;93.73;95975.84;5015046;28;20209;-82
2021/11/16 05:56:25;;;;;;;23.20;14.17;;;;;;;6.93;93.29;95978.75;5012680;28;20214;-78
2021/11/16 05:58:54;;;;;;;20.23;13.83;;;;;;;6.92;93.55;95977.16;5005419;28;20708;-81
2021/11/16 06:01:22;;;;;;;20.00;12.80;;;;;;;6.89;93.05;95979.19;5010486;28;20206;-80
2021/11/16 06:03:52;;;;;;;17.57;12.03;;;;;;;6.88;92.66;95975.03;5013129;28;20298;-81
2021/11/16 06:06:20;;;;;;;16.13;11.63;;;;;;;6.88;92.47;95977.59;5000406;28;20254;-83
2021/11/16 06:08:48;;;;;;;18.23;12.30;;;;;;;6.86;92.48;95974.38;5006129;28;20239;-79
2021/11/16 06:11:15;;;;;;;16.70;11.00;;;;;;;6.83;92.97;95975.44;5014976;28;20253;-83
2021/11/16 06:13:41;;;;;;;16.80;10.70;;;;;;;6.86;92.40;95974.38;5010696;28;20575;-82
2021/11/16 06:16:08;;;;;;;20.07;11.03;;;;;;;6.88;92.74;95975.84;5014516;28;20207;-82
2021/11/16 06:18:34;;;;;;;16.40;10.43;;;;;;;6.72;92.39;95964.63;5014054;28;20210;-83
2021/11/16 06:21:02;;;;;;;14.73;10.13;;;;;;;6.67;92.02;95965.03;5014773;28;20202;-84
2021/11/16 06:23:28;;;;;;;12.33;9.67;;;;;;;6.70;91.74;95967.31;5014092;28;20226;-84
2021/11/16 06:25:55;;;;;;;12.80;9.37;;;;;;;6.71;91.97;95968.94;5002860;28;20203;-84
2021/11/16 06:28:22;;;;;;;13.80;9.70;;;;;;;6.78;91.78;95974.25;5014138;28;20249;-83
2021/11/16 06:30:48;;;;;;;12.83;9.23;;;;;;;6.80;91.41;95982.59;5014631;28;20206;-82
2021/11/16 06:33:20;;;;;;;13.23;10.07;;;;;;;6.69;91.48;95981.06;5012082;28;20238;-82
2021/11/16 06:35:46;;;;;;;14.07;10.07;;;;;;;6.78;92.00;95990.41;4994965;28;20199;-84
2021/11/16 06:38:14;;;;;;;12.47;9.03;;;;;;;6.72;91.30;95978.22;5007479;28;20218;-81
2021/11/16 06:40:47;;;;;;;13.33;9.40;;;;;;;6.78;91.06;95979.38;5014545;28;20230;-83
2021/11/16 06:43:20;;;;;;;14.00;9.03;;;;;;;6.85;91.08;95975.31;5014195;28;20223;-82
2021/11/16 06:45:50;;;;;;;11.17;8.30;;;;;;;6.90;91.08;95976.50;5002765;28;20235;-82
2021/11/16 06:48:17;;;;;;;12.00;8.60;;;;;;;6.85;90.39;95972.75;4994689;28;20693;-81
2021/11/16 06:50:43;;;;;;;13.07;9.10;;;;;;;6.81;90.32;95976.53;5002649;28;20195;-84
2021/11/16 06:53:10;;;;;;;11.93;8.53;;;;;;;6.80;90.42;95985.97;5001299;28;20641;-82
2021/11/16 06:55:38;;;;;;;11.40;8.50;;;;;;;6.76;90.38;95983.84;4998711;28;20482;-83
2021/11/16 06:58:04;;;;;;;10.50;8.40;;;;;;;6.76;90.98;95986.38;5014352;28;20203;-84
2021/11/16 07:00:32;;;;;;;11.57;8.40;;;;;;;6.79;90.66;95986.91;5013329;28;20229;-81
2021/11/16 07:03:00;;;;;;;12.13;9.10;;;;;;;6.80;91.21;95985.97;5013172;28;20313;-84
2021/11/16 07:05:28;;;;;;;11.93;9.03;;;;;;;6.84;90.21;95981.38;5013174;28;20209;-79
2021/11/16 07:07:56;;;;;;;11.17;7.87;;;;;;;6.84;89.83;95981.38;5011256;28;20229;-83
2021/11/16 07:10:25;;;;;;;11.40;8.70;;;;;;;6.83;89.45;95995.13;4993737;28;20230;-82
2021/11/16 07:12:53;;;;;;;10.53;8.20;;;;;;;6.89;89.48;95997.91;4993117;28;20239;-81
2021/11/16 07:15:21;;;;;;;10.83;7.87;;;;;;;6.84;89.21;95994.97;5012521;28;20745;-82
2021/11/16 07:17:48;;;;;;;11.67;8.13;;;;;;;6.88;89.24;96001.44;5012085;28;20207;-81
2021/11/16 07:20:15;;;;;;;10.90;8.13;;;;;;;6.89;89.04;96005.59;5002654;28;20219;-83
2021/11/16 07:22:41;;;;;;;11.13;8.13;;;;;;;6.89;89.14;96005.59;4992895;28;20231;-81
2021/11/16 07:25:11;;;;;;;9.93;7.77;;;;;;;6.90;88.86;96014.88;4993058;28;20204;-80
2021/11/16 07:27:40;;;;;;;11.53;8.70;;;;;;;6.88;87.89;96011.66;5009512;28;20203;-80
2021/11/16 07:30:10;;;;;;;9.93;8.07;;;;;;;6.90;87.97;96012.34;4994575;28;20203;-83
2021/11/16 07:32:46;;;;;;;9.33;7.60;;;;;;;6.93;87.91;96011.22;4993410;28;20223;-84
2021/11/16 07:35:15;;;;;;;11.23;8.10;;;;;;;6.97;87.85;96011.75;4992155;28;20294;-81
2021/11/16 07:37:42;;;;;;;11.73;8.13;;;;;;;6.98;87.68;96014.16;4996596;28;20270;-81
2021/11/16 07:40:12;;;;;;;9.87;7.83;;;;;;;7.00;87.57;96016.56;4992738;28;20227;-84
2021/11/16 07:42:48;;;;;;;11.13;7.57;;;;;;;6.98;87.66;96006.47;5010812;28;20218;-82
2021/11/16 07:45:18;;;;;;;9.13;7.37;;;;;;;7.01;87.35;96003.63;5010739;28;20198;-84
2021/11/16 07:47:49;;;;;;;9.33;7.10;;;;;;;7.04;87.18;96005.09;5011653;28;20214;-82
2021/11/16 07:50:42;;;;;;;10.03;7.50;;;;;;;6.98;85.88;96019.28;5009238;28;20792;-83
2021/11/16 07:53:15;;;;;;;9.13;6.67;;;;;;;6.85;85.26;96019.63;5011524;28;20241;-83
2021/11/16 07:55:46;;;;;;;8.33;6.47;;;;;;;6.79;85.31;96017.63;5011992;28;20570;-80
2021/11/16 07:58:14;;;;;;;8.97;7.10;;;;;;;6.80;85.09;96016.69;5011523;28;20191;-83
2021/11/16 08:00:47;;;;;;;8.53;6.80;;;;;;;6.77;84.66;96013.59;4996241;28;20223;-79
2021/11/16 08:03:17;;;;;;;7.90;6.43;;;;;;;6.77;84.81;96018.72;5007793;28;20227;-82
2021/11/16 08:05:55;;;;;;;7.63;6.30;;;;;;;6.70;84.96;96018.50;5011735;28;20249;-80
2021/11/16 08:08:38;;;;;;;8.03;6.70;;;;;;;6.72;85.38;96011.47;5012693;28;20195;-83
2021/11/16 08:11:14;;;;;;;9.67;7.37;;;;;;;6.76;85.71;96025.59;5011551;28;20245;-84
2021/11/16 08:13:55;;;;;;;10.13;7.27;;;;;;;6.73;85.66;96038.69;4993093;28;20254;-82
2021/11/16 08:16:24;;;;;;;9.03;7.20;;;;;;;6.78;85.54;96033.94;4992128;28;20203;-81
2021/11/16 08:18:56;;;;;;;8.70;7.23;;;;;;;6.79;84.86;96030.41;4992847;28;20199;-84
2021/11/16 08:21:25;;;;;;;8.33;6.43;;;;;;;6.83;85.06;96036.06;4996882;28;20320;-81
2021/11/16 08:23:55;;;;;;;8.03;6.17;;;;;;;6.72;83.77;96036.25;5003282;28;20222;-83
2021/11/16 08:26:23;;;;;;;8.83;6.77;;;;;;;6.61;83.89;96029.56;5011096;28;20206;-83
2021/11/16 08:28:51;;;;;;;6.83;6.03;;;;;;;6.55;84.47;96030.13;5008070;28;20211;-82
2021/11/16 08:31:18;;;;;;;8.20;6.93;;;;;;;6.47;84.38;96040.25;5011061;28;20226;-82
2021/11/16 08:33:47;;;;;;;7.03;6.00;;;;;;;6.48;84.99;96042.69;4992952;28;20748;-83
2021/11/16 08:36:14;;;;;;;7.73;6.70;;;;;;;6.51;85.29;96042.41;5006023;28;20210;-85
2021/11/16 08:38:42;;;;;;;9.27;7.33;;;;;;;6.49;85.02;96031.50;5012093;28;20202;-84
2021/11/16 08:41:09;;;;;;;10.17;6.97;;;;;;;6.62;85.16;96038.03;5012650;28;20797;-84
2021/11/16 08:43:39;;;;;;;8.50;7.10;;;;;;;6.66;85.10;96037.63;5011777;28;20223;-83
2021/11/16 08:46:08;;;;;;;7.80;6.57;;;;;;;6.69;84.56;96034.78;5007371;28;20206;-84
2021/11/16 08:48:40;;;;;;;7.53;6.23;;;;;;;6.76;84.10;96035.00;5011300;28;20207;-81
2021/11/16 08:51:12;;;;;;;7.70;6.20;;;;;;;6.78;83.82;96036.47;5011685;28;20206;-84
2021/11/16 08:53:40;;;;;;;8.40;7.03;;;;;;;6.73;84.01;96032.75;4992105;28;20442;-85
2021/11/16 08:56:12;;;;;;;8.93;7.10;;;;;;;6.77;84.10;96026.38;4993117;28;20291;-82
2021/11/16 08:58:39;;;;;;;8.57;6.80;;;;;;;6.86;83.97;96035.78;4995324;28;20200;-82
2021/11/16 09:01:08;;;;;;;7.93;6.47;;;;;;;6.76;85.00;96030.69;4996335;28;20590;-82
2021/11/16 09:03:43;;;;;;;8.50;6.67;;;;;;;6.73;86.10;96038.69;4996378;28;20219;-80
2021/11/16 09:06:18;;;;;;;8.83;6.90;;;;;;;6.77;85.58;96040.00;4995919;28;20581;-84
2021/11/16 09:08:45;;;;;;;10.20;7.00;;;;;;;6.74;84.97;96039.47;4996013;28;20621;-83
2021/11/16 09:11:14;;;;;;;8.37;7.00;;;;;;;6.74;84.88;96042.03;4995421;28;20230;-82
2021/11/16 09:13:42;;;;;;;8.33;6.83;;;;;;;6.82;85.14;96047.25;4992814;28;20322;-84
2021/11/16 09:16:11;;;;;;;9.10;7.23;;;;;;;6.85;84.69;96044.41;4994150;28;20204;-83
2021/11/16 09:18:40;;;;;;;9.87;7.20;;;;;;;6.90;84.80;96047.34;4985590;28;20203;-84
2021/11/16 09:21:09;;;;;;;10.20;7.37;;;;;;;6.90;84.97;96044.81;4996155;28;20303;-84
2021/11/16 09:23:40;;;;;;;7.73;6.83;;;;;;;6.86;85.09;96046.03;4993454;28;20254;-82
2021/11/16 09:26:18;;;;;;;9.67;7.70;;;;;;;6.90;85.57;96043.03;4993935;28;20263;-84
2021/11/16 09:28:51;;;;;;;8.50;7.00;;;;;;;6.89;85.55;96041.44;4985212;28;20211;-83
2021/11/16 09:31:25;;;;;;;7.83;6.90;;;;;;;6.91;85.51;96042.09;4995020;28;20196;-80
2021/11/16 09:33:54;;;;;;;9.13;7.37;;;;;;;6.90;85.61;96042.25;4992019;28;20223;-84
2021/11/16 09:36:23;;;;;;;9.77;6.70;;;;;;;6.86;85.76;96041.72;4994758;28;20203;-82
2021/11/16 09:38:53;;;;;;;9.20;7.00;;;;;;;6.90;86.53;96045.59;4998155;28;20211;-85
2021/11/16 09:41:33;;;;;;;8.83;7.00;;;;;;;6.95;86.13;96040.03;4996974;28;20223;-84
2021/11/16 09:44:05;;;;;;;10.97;8.43;;;;;;;6.81;85.77;96041.31;4996898;28;20206;-84
2021/11/16 09:46:33;;;;;;;9.93;8.07;;;;;;;6.84;85.77;96040.25;4997415;28;20206;-83
2021/11/16 09:49:01;;;;;;;10.30;8.47;;;;;;;6.89;85.60;96044.00;4995012;28;20590;-82
2021/11/16 09:51:29;;;;;;;9.03;7.23;;;;;;;6.85;84.56;96039.28;4996130;28;20195;-82
2021/11/16 09:54:07;;;;;;;8.33;6.93;;;;;;;6.79;84.58;96050.09;5012625;28;20245;-82
2021/11/16 09:56:35;;;;;;;8.83;7.13;;;;;;;6.82;83.95;96049.81;5015170;28;20217;-83
2021/11/16 09:59:03;;;;;;;8.60;6.90;;;;;;;6.82;83.88;96052.38;5010657;28;20199;-82
2021/11/16 10:01:34;;;;;;;8.47;6.63;;;;;;;6.88;83.90;96044.13;5013846;28;20234;-83
2021/11/16 10:04:19;;;;;;;7.13;6.27;;;;;;;6.94;83.75;96041.78;5014792;28;20206;-81
2021/11/16 10:06:46;;;;;;;6.83;5.27;;;;;;;6.87;82.31;96045.88;5013352;28;20249;-82
2021/11/16 10:09:14;;;;;;;5.57;5.03;;;;;;;6.88;82.49;96039.81;5013947;28;20222;-85
2021/11/16 10:11:42;;;;;;;8.67;5.60;;;;;;;7.03;82.74;96041.91;5011203;28;20208;-84
2021/11/16 10:14:15;;;;;;;6.53;4.70;;;;;;;7.03;81.09;96039.34;4999644;28;20206;-84
2021/11/16 10:16:43;;;;;;;6.23;4.97;;;;;;;6.99;80.26;96025.19;5014644;28;20198;-80
2021/11/16 10:19:09;;;;;;;10.00;4.83;;;;;;;7.00;80.53;96031.94;5014791;28;20203;-82
2021/11/16 10:21:36;;;;;;;6.10;4.70;;;;;;;7.00;80.48;96024.25;5010858;28;20214;-83
2021/11/16 10:24:25;;;;;;;7.10;4.80;;;;;;;7.04;79.94;96028.94;5013373;28;20681;-82
2021/11/16 10:26:52;;;;;;;5.37;4.43;;;;;;;7.08;79.85;96032.03;5014167;28;20574;-82
2021/11/16 10:29:19;;;;;;;5.80;4.97;;;;;;;7.05;80.31;96037.44;5014885;28;20213;-83
2021/11/16 10:31:47;;;;;;;5.93;4.97;;;;;;;7.10;80.33;96040.38;5004651;28;20207;-84
2021/11/16 10:34:13;;;;;;;5.83;4.73;;;;;;;7.07;79.34;96038.09;5013768;28;20323;-84
2021/11/16 10:36:40;;;;;;;7.43;5.03;;;;;;;7.12;80.37;96034.13;5014219;28;20191;-81
2021/11/16 10:39:07;;;;;;;7.00;5.70;;;;;;;7.10;80.53;96033.50;5013932;28;20199;-85
2021/11/16 10:41:37;;;;;;;5.77;5.17;;;;;;;7.14;80.73;96032.25;5010619;28;20219;-82
2021/11/16 10:44:07;;;;;;;6.47;5.67;;;;;;;7.12;80.59;96015.44;5013402;28;20257;-84
2021/11/16 10:46:40;;;;;;;6.87;5.70;;;;;;;7.06;80.45;96016.81;5012373;28;20198;-82
2021/11/16 10:49:10;;;;;;;6.83;5.43;;;;;;;7.12;81.17;96020.56;5001618;28;20199;-82
2021/11/16 10:51:38;;;;;;;8.13;6.50;;;;;;;7.16;80.71;96017.53;4994154;28;20228;-82
2021/11/16 10:54:09;;;;;;;7.23;5.60;;;;;;;7.08;81.12;96012.38;5011730;28;20203;-81
2021/11/16 10:56:37;;;;;;;6.90;5.70;;;;;;;7.07;81.07;96012.50;5013998;28;20195;-82
2021/11/16 10:59:05;;;;;;;8.57;6.30;;;;;;;7.03;81.57;96017.09;5012188;28;20198;-84
2021/11/16 11:01:43;;;;;;;7.33;5.93;;;;;;;7.05;81.77;96015.19;5013641;28;20226;-81
2021/11/16 11:04:13;;;;;;;8.03;6.63;;;;;;;7.06;81.71;96014.25;4994255;28;20208;-83
2021/11/16 11:06:43;;;;;;;8.43;6.50;;;;;;;7.09;82.17;96019.09;5000293;28;20250;-84
2021/11/16 11:09:10;;;;;;;8.23;6.10;;;;;;;7.14;82.69;96008.41;5013943;28;20198;-82
2021/11/16 11:11:39;;;;;;;7.30;5.90;;;;;;;7.15;82.62;96004.88;5014247;28;20195;-84
2021/11/16 11:14:07;;;;;;;8.23;6.60;;;;;;;7.10;83.26;96001.97;5013742;28;20215;-82
2021/11/16 11:16:37;;;;;;;7.93;6.50;;;;;;;7.06;83.38;95995.53;5013205;28;20199;-80
2021/11/16 11:19:05;;;;;;;9.83;6.83;;;;;;;7.08;83.62;95998.75;5013481;28;20203;-81
2021/11/16 11:21:37;;;;;;;7.03;6.07;;;;;;;7.11;83.32;96001.03;5013062;28;20227;-80
2021/11/16 11:24:17;;;;;;;9.67;6.87;;;;;;;7.12;83.20;96005.97;5013243;28;20253;-84
2021/11/16 11:26:48;;;;;;;8.57;6.23;;;;;;;7.05;82.92;96004.97;5013125;28;20209;-80
2021/11/16 11:29:35;;;;;;;7.77;6.60;;;;;;;7.16;82.66;95994.50;5000515;28;20227;-81
2021/11/16 11:32:10;;;;;;;8.80;6.37;;;;;;;7.10;82.99;95986.63;5012846;28;20227;-79
2021/11/16 11:34:40;;;;;;;8.33;6.67;;;;;;;7.09;83.20;96000.38;5012283;28;20198;-80
2021/11/16 11:37:10;;;;;;;7.30;6.10;;;;;;;7.13;83.08;95991.41;5008208;28;20198;-84
2021/11/16 11:39:37;;;;;;;7.33;6.60;;;;;;;7.21;82.83;95996.63;4998678;28;20700;-84
2021/11/16 11:42:09;;;;;;;9.83;7.43;;;;;;;7.16;82.65;95984.25;5013330;28;20231;-84
2021/11/16 11:44:42;;;;;;;8.50;6.87;;;;;;;7.09;82.76;95993.50;5011355;28;20206;-84
2021/11/16 11:47:09;;;;;;;9.67;7.33;;;;;;;7.07;82.89;95990.25;5012830;28;20237;-83